sensor_id;sensor_type;location;lat;lon;timestamp;P1;durP1;ratioP1;P2;durP2;ratioP2
11531;SDS011;5822;51.000;5.874;2022-10-16T00:01:45;8.20;;;7.80;;
11531;SDS011;5822;51.000;5.874;2022-10-16T00:04:11;8.23;;;7.83;;
11531;SDS011;5822;51.000;5.874;2022-10-16T00:06:37;7.90;;;7.60;;
11531;SDS011;5822;51.000;5.874;2022-10-16T00:09:03;7.88;;;7.55;;
11531;SDS011;5822;51.000;5.874;2022-10-16T00:11:33;7.80;;;7.50;;
11531;SDS011;5822;51.000;5.874;2022-10-16T00:14:02;8.10;;;7.70;;
11531;SDS011;5822;51.000;5.874;2022-10-16T00:16:30;8.33;;;7.93;;
11531;SDS011;5822;51.000;5.874;2022-10-16T00:18:56;8.50;;;8.10;;
11531;SDS011;5822;51.000;5.874;2022-10-16T00:21:23;8.00;;;7.70;;
11531;SDS011;5822;51.000;5.874;2022-10-16T00:23:52;8.00;;;7.60;;
11531;SDS011;5822;51.000;5.874;2022-10-16T00:26:19;7.90;;;7.60;;
11531;SDS011;5822;51.000;5.874;2022-10-16T00:28:49;7.70;;;7.40;;
11531;SDS011;5822;51.000;5.874;2022-10-16T00:31:15;8.10;;;7.80;;
11531;SDS011;5822;51.000;5.874;2022-10-16T00:33:42;8.25;;;7.85;;
11531;SDS011;5822;51.000;5.874;2022-10-16T00:36:10;8.30;;;7.90;;
11531;SDS011;5822;51.000;5.874;2022-10-16T00:38:38;8.10;;;7.70;;
11531;SDS011;5822;51.000;5.874;2022-10-16T00:41:04;8.25;;;7.85;;
11531;SDS011;5822;51.000;5.874;2022-10-16T00:43:35;7.90;;;7.60;;
11531;SDS011;5822;51.000;5.874;2022-10-16T00:46:04;7.60;;;7.30;;
11531;SDS011;5822;51.000;5.874;2022-10-16T00:48:38;7.72;;;7.43;;
11531;SDS011;5822;51.000;5.874;2022-10-16T00:51:04;7.85;;;7.50;;
11531;SDS011;5822;51.000;5.874;2022-10-16T00:53:32;8.10;;;7.80;;
11531;SDS011;5822;51.000;5.874;2022-10-16T00:55:57;8.00;;;7.70;;
11531;SDS011;5822;51.000;5.874;2022-10-16T00:58:23;8.00;;;7.70;;
11531;SDS011;5822;51.000;5.874;2022-10-16T01:00:49;7.87;;;7.57;;
11531;SDS011;5822;51.000;5.874;2022-10-16T01:05:54;7.60;;;7.30;;
11531;SDS011;5822;51.000;5.874;2022-10-16T01:08:49;7.50;;;7.20;;
11531;SDS011;5822;51.000;5.874;2022-10-16T01:11:33;7.70;;;7.40;;
11531;SDS011;5822;51.000;5.874;2022-10-16T01:14:26;7.67;;;7.37;;
11531;SDS011;5822;51.000;5.874;2022-10-16T01:25:58;7.80;;;7.50;;
11531;SDS011;5822;51.000;5.874;2022-10-16T01:28:14;7.30;;;7.00;;
11531;SDS011;5822;51.000;5.874;2022-10-16T01:30:43;7.90;;;7.60;;
11531;SDS011;5822;51.000;5.874;2022-10-16T01:33:13;7.65;;;7.35;;
11531;SDS011;5822;51.000;5.874;2022-10-16T01:35:44;7.40;;;7.10;;
11531;SDS011;5822;51.000;5.874;2022-10-16T01:38:17;7.63;;;7.32;;
11531;SDS011;5822;51.000;5.874;2022-10-16T01:40:52;7.65;;;7.35;;
11531;SDS011;5822;51.000;5.874;2022-10-16T01:43:45;8.00;;;7.70;;
11531;SDS011;5822;51.000;5.874;2022-10-16T01:46:14;8.00;;;7.70;;
11531;SDS011;5822;51.000;5.874;2022-10-16T01:48:43;7.70;;;7.40;;
11531;SDS011;5822;51.000;5.874;2022-10-16T01:51:10;7.80;;;7.50;;
11531;SDS011;5822;51.000;5.874;2022-10-16T01:53:38;7.57;;;7.28;;
11531;SDS011;5822;51.000;5.874;2022-10-16T01:56:08;7.80;;;7.50;;
11531;SDS011;5822;51.000;5.874;2022-10-16T01:58:38;7.70;;;7.40;;
11531;SDS011;5822;51.000;5.874;2022-10-16T02:01:11;7.80;;;7.50;;
11531;SDS011;5822;51.000;5.874;2022-10-16T02:03:41;7.90;;;7.60;;
11531;SDS011;5822;51.000;5.874;2022-10-16T02:06:09;8.25;;;7.88;;
11531;SDS011;5822;51.000;5.874;2022-10-16T02:08:35;8.30;;;7.90;;
11531;SDS011;5822;51.000;5.874;2022-10-16T02:11:01;7.80;;;7.50;;
11531;SDS011;5822;51.000;5.874;2022-10-16T02:13:30;7.90;;;7.50;;
11531;SDS011;5822;51.000;5.874;2022-10-16T02:16:07;8.23;;;7.82;;
11531;SDS011;5822;51.000;5.874;2022-10-16T02:18:34;8.10;;;7.70;;
11531;SDS011;5822;51.000;5.874;2022-10-16T02:21:05;8.30;;;7.90;;
11531;SDS011;5822;51.000;5.874;2022-10-16T02:26:31;7.80;;;7.50;;
11531;SDS011;5822;51.000;5.874;2022-10-16T02:29:01;8.00;;;7.70;;
11531;SDS011;5822;51.000;5.874;2022-10-16T02:31:31;7.88;;;7.50;;
11531;SDS011;5822;51.000;5.874;2022-10-16T02:34:00;8.10;;;7.70;;
11531;SDS011;5822;51.000;5.874;2022-10-16T02:36:29;7.90;;;7.60;;
11531;SDS011;5822;51.000;5.874;2022-10-16T02:38:56;8.02;;;7.63;;
11531;SDS011;5822;51.000;5.874;2022-10-16T02:41:25;7.80;;;7.50;;
11531;SDS011;5822;51.000;5.874;2022-10-16T02:43:50;8.60;;;8.20;;
11531;SDS011;5822;51.000;5.874;2022-10-16T02:46:16;8.00;;;7.70;;
11531;SDS011;5822;51.000;5.874;2022-10-16T02:48:43;8.05;;;7.70;;
11531;SDS011;5822;51.000;5.874;2022-10-16T02:51:08;8.00;;;7.70;;
11531;SDS011;5822;51.000;5.874;2022-10-16T02:53:34;7.70;;;7.40;;
11531;SDS011;5822;51.000;5.874;2022-10-16T02:56:00;7.90;;;7.60;;
11531;SDS011;5822;51.000;5.874;2022-10-16T02:58:26;7.90;;;7.50;;
11531;SDS011;5822;51.000;5.874;2022-10-16T03:00:51;7.70;;;7.40;;
11531;SDS011;5822;51.000;5.874;2022-10-16T03:03:17;7.70;;;7.40;;
11531;SDS011;5822;51.000;5.874;2022-10-16T03:05:43;8.07;;;7.78;;
11531;SDS011;5822;51.000;5.874;2022-10-16T03:08:11;7.70;;;7.40;;
11531;SDS011;5822;51.000;5.874;2022-10-16T03:10:37;7.80;;;7.50;;
11531;SDS011;5822;51.000;5.874;2022-10-16T03:13:02;7.95;;;7.60;;
11531;SDS011;5822;51.000;5.874;2022-10-16T03:15:28;7.63;;;7.33;;
11531;SDS011;5822;51.000;5.874;2022-10-16T03:17:54;7.63;;;7.33;;
11531;SDS011;5822;51.000;5.874;2022-10-16T03:20:22;7.70;;;7.40;;
11531;SDS011;5822;51.000;5.874;2022-10-16T03:22:47;7.60;;;7.20;;
11531;SDS011;5822;51.000;5.874;2022-10-16T03:25:13;7.60;;;7.30;;
11531;SDS011;5822;51.000;5.874;2022-10-16T03:27:39;8.10;;;7.80;;
11531;SDS011;5822;51.000;5.874;2022-10-16T03:30:04;8.00;;;7.70;;
11531;SDS011;5822;51.000;5.874;2022-10-16T03:32:30;7.90;;;7.60;;
11531;SDS011;5822;51.000;5.874;2022-10-16T03:34:56;7.80;;;7.40;;
11531;SDS011;5822;51.000;5.874;2022-10-16T03:37:22;7.60;;;7.30;;
11531;SDS011;5822;51.000;5.874;2022-10-16T03:39:47;7.50;;;7.20;;
11531;SDS011;5822;51.000;5.874;2022-10-16T03:42:13;7.63;;;7.32;;
11531;SDS011;5822;51.000;5.874;2022-10-16T03:44:38;7.40;;;7.10;;
11531;SDS011;5822;51.000;5.874;2022-10-16T03:47:04;7.53;;;7.20;;
11531;SDS011;5822;51.000;5.874;2022-10-16T03:49:30;7.80;;;7.50;;
11531;SDS011;5822;51.000;5.874;2022-10-16T03:51:55;7.90;;;7.60;;
11531;SDS011;5822;51.000;5.874;2022-10-16T03:54:21;8.13;;;7.72;;
11531;SDS011;5822;51.000;5.874;2022-10-16T03:56:47;7.70;;;7.40;;
11531;SDS011;5822;51.000;5.874;2022-10-16T03:59:13;7.50;;;7.20;;
11531;SDS011;5822;51.000;5.874;2022-10-16T04:01:38;8.20;;;7.80;;
11531;SDS011;5822;51.000;5.874;2022-10-16T04:04:04;8.15;;;7.85;;
11531;SDS011;5822;51.000;5.874;2022-10-16T04:06:30;8.07;;;7.67;;
11531;SDS011;5822;51.000;5.874;2022-10-16T04:08:55;7.90;;;7.60;;
11531;SDS011;5822;51.000;5.874;2022-10-16T04:11:21;9.40;;;9.00;;
11531;SDS011;5822;51.000;5.874;2022-10-16T04:13:47;9.98;;;9.57;;
11531;SDS011;5822;51.000;5.874;2022-10-16T04:16:13;9.70;;;9.30;;
11531;SDS011;5822;51.000;5.874;2022-10-16T04:18:39;10.10;;;9.70;;
11531;SDS011;5822;51.000;5.874;2022-10-16T04:21:05;9.70;;;9.30;;
11531;SDS011;5822;51.000;5.874;2022-10-16T04:23:31;9.63;;;9.23;;
11531;SDS011;5822;51.000;5.874;2022-10-16T04:25:57;9.27;;;8.90;;
11531;SDS011;5822;51.000;5.874;2022-10-16T04:28:24;9.50;;;9.10;;
11531;SDS011;5822;51.000;5.874;2022-10-16T04:30:49;9.60;;;9.20;;
11531;SDS011;5822;51.000;5.874;2022-10-16T04:33:15;10.23;;;9.82;;
11531;SDS011;5822;51.000;5.874;2022-10-16T04:35:41;10.43;;;10.00;;
11531;SDS011;5822;51.000;5.874;2022-10-16T04:38:06;10.77;;;10.27;;
11531;SDS011;5822;51.000;5.874;2022-10-16T04:40:32;10.13;;;9.73;;
11531;SDS011;5822;51.000;5.874;2022-10-16T04:42:58;9.80;;;9.40;;
11531;SDS011;5822;51.000;5.874;2022-10-16T04:45:24;9.60;;;9.20;;
11531;SDS011;5822;51.000;5.874;2022-10-16T04:47:50;10.00;;;9.60;;
11531;SDS011;5822;51.000;5.874;2022-10-16T04:50:15;10.00;;;9.50;;
11531;SDS011;5822;51.000;5.874;2022-10-16T04:52:41;9.80;;;9.40;;
11531;SDS011;5822;51.000;5.874;2022-10-16T04:55:07;9.90;;;9.40;;
11531;SDS011;5822;51.000;5.874;2022-10-16T04:57:33;10.18;;;9.70;;
11531;SDS011;5822;51.000;5.874;2022-10-16T04:59:58;10.20;;;9.80;;
11531;SDS011;5822;51.000;5.874;2022-10-16T05:02:24;10.37;;;9.97;;
11531;SDS011;5822;51.000;5.874;2022-10-16T05:04:50;9.90;;;9.50;;
11531;SDS011;5822;51.000;5.874;2022-10-16T05:07:16;9.63;;;9.23;;
11531;SDS011;5822;51.000;5.874;2022-10-16T05:09:42;10.30;;;9.80;;
11531;SDS011;5822;51.000;5.874;2022-10-16T05:12:07;10.63;;;10.13;;
11531;SDS011;5822;51.000;5.874;2022-10-16T05:14:33;10.32;;;9.93;;
11531;SDS011;5822;51.000;5.874;2022-10-16T05:16:59;10.27;;;9.88;;
11531;SDS011;5822;51.000;5.874;2022-10-16T05:19:25;10.00;;;9.60;;
11531;SDS011;5822;51.000;5.874;2022-10-16T05:21:51;10.40;;;9.90;;
11531;SDS011;5822;51.000;5.874;2022-10-16T05:24:16;10.30;;;9.90;;
11531;SDS011;5822;51.000;5.874;2022-10-16T05:26:42;10.80;;;10.30;;
11531;SDS011;5822;51.000;5.874;2022-10-16T05:29:08;10.30;;;9.90;;
11531;SDS011;5822;51.000;5.874;2022-10-16T05:31:34;10.50;;;10.10;;
11531;SDS011;5822;51.000;5.874;2022-10-16T05:33:59;10.50;;;10.00;;
11531;SDS011;5822;51.000;5.874;2022-10-16T05:36:25;10.50;;;10.10;;
11531;SDS011;5822;51.000;5.874;2022-10-16T05:38:51;10.07;;;9.60;;
11531;SDS011;5822;51.000;5.874;2022-10-16T05:41:17;10.83;;;10.23;;
11531;SDS011;5822;51.000;5.874;2022-10-16T05:43:46;10.43;;;10.02;;
11531;SDS011;5822;51.000;5.874;2022-10-16T05:46:12;11.27;;;10.77;;
11531;SDS011;5822;51.000;5.874;2022-10-16T05:48:38;10.60;;;10.10;;
11531;SDS011;5822;51.000;5.874;2022-10-16T05:51:08;9.80;;;9.40;;
11531;SDS011;5822;51.000;5.874;2022-10-16T05:53:36;9.75;;;9.35;;
11531;SDS011;5822;51.000;5.874;2022-10-16T05:56:03;9.52;;;9.13;;
11531;SDS011;5822;51.000;5.874;2022-10-16T05:58:30;9.50;;;9.10;;
11531;SDS011;5822;51.000;5.874;2022-10-16T06:00:58;9.40;;;9.00;;
11531;SDS011;5822;51.000;5.874;2022-10-16T06:03:25;10.30;;;9.80;;
11531;SDS011;5822;51.000;5.874;2022-10-16T06:05:51;10.48;;;10.00;;
11531;SDS011;5822;51.000;5.874;2022-10-16T06:08:18;10.60;;;10.10;;
11531;SDS011;5822;51.000;5.874;2022-10-16T06:10:44;11.45;;;10.95;;
11531;SDS011;5822;51.000;5.874;2022-10-16T06:13:11;10.70;;;10.20;;
11531;SDS011;5822;51.000;5.874;2022-10-16T06:15:38;11.50;;;11.00;;
11531;SDS011;5822;51.000;5.874;2022-10-16T06:18:07;11.10;;;10.60;;
11531;SDS011;5822;51.000;5.874;2022-10-16T06:20:33;10.77;;;10.27;;
11531;SDS011;5822;51.000;5.874;2022-10-16T06:22:59;11.02;;;10.52;;
11531;SDS011;5822;51.000;5.874;2022-10-16T06:25:25;11.45;;;10.95;;
11531;SDS011;5822;51.000;5.874;2022-10-16T06:27:50;11.90;;;11.40;;
11531;SDS011;5822;51.000;5.874;2022-10-16T06:30:16;13.00;;;12.50;;
11531;SDS011;5822;51.000;5.874;2022-10-16T06:32:42;16.10;;;15.40;;
11531;SDS011;5822;51.000;5.874;2022-10-16T06:35:07;14.20;;;13.60;;
11531;SDS011;5822;51.000;5.874;2022-10-16T06:37:33;15.13;;;14.43;;
11531;SDS011;5822;51.000;5.874;2022-10-16T06:39:58;16.00;;;15.30;;
11531;SDS011;5822;51.000;5.874;2022-10-16T06:42:25;10.48;;;10.00;;
11531;SDS011;5822;51.000;5.874;2022-10-16T06:44:50;10.70;;;10.20;;
11531;SDS011;5822;51.000;5.874;2022-10-16T06:47:16;11.48;;;10.98;;
11531;SDS011;5822;51.000;5.874;2022-10-16T06:49:41;11.68;;;11.18;;
11531;SDS011;5822;51.000;5.874;2022-10-16T06:52:07;14.03;;;13.43;;
11531;SDS011;5822;51.000;5.874;2022-10-16T06:54:33;13.98;;;13.38;;
11531;SDS011;5822;51.000;5.874;2022-10-16T06:56:58;11.30;;;10.70;;
11531;SDS011;5822;51.000;5.874;2022-10-16T06:59:25;11.30;;;10.80;;
11531;SDS011;5822;51.000;5.874;2022-10-16T07:01:50;11.68;;;11.18;;
11531;SDS011;5822;51.000;5.874;2022-10-16T07:04:16;12.13;;;11.60;;
11531;SDS011;5822;51.000;5.874;2022-10-16T07:06:41;12.90;;;12.40;;
11531;SDS011;5822;51.000;5.874;2022-10-16T07:09:09;10.80;;;10.40;;
11531;SDS011;5822;51.000;5.874;2022-10-16T07:11:36;10.52;;;10.07;;
11531;SDS011;5822;51.000;5.874;2022-10-16T07:14:02;10.63;;;10.13;;
11531;SDS011;5822;51.000;5.874;2022-10-16T07:16:30;11.40;;;10.82;;
11531;SDS011;5822;51.000;5.874;2022-10-16T07:18:58;13.68;;;13.07;;
11531;SDS011;5822;51.000;5.874;2022-10-16T07:21:32;14.05;;;13.45;;
11531;SDS011;5822;51.000;5.874;2022-10-16T07:24:03;10.88;;;10.38;;
11531;SDS011;5822;51.000;5.874;2022-10-16T07:26:32;10.25;;;9.85;;
11531;SDS011;5822;51.000;5.874;2022-10-16T07:28:59;10.30;;;9.90;;
11531;SDS011;5822;51.000;5.874;2022-10-16T07:31:25;11.43;;;10.93;;
11531;SDS011;5822;51.000;5.874;2022-10-16T07:33:52;12.95;;;12.35;;
11531;SDS011;5822;51.000;5.874;2022-10-16T07:36:18;10.55;;;10.05;;
11531;SDS011;5822;51.000;5.874;2022-10-16T07:38:45;10.95;;;10.43;;
11531;SDS011;5822;51.000;5.874;2022-10-16T07:41:13;11.43;;;10.90;;
11531;SDS011;5822;51.000;5.874;2022-10-16T07:43:40;10.65;;;10.15;;
11531;SDS011;5822;51.000;5.874;2022-10-16T07:46:14;13.70;;;13.00;;
11531;SDS011;5822;51.000;5.874;2022-10-16T07:48:41;11.20;;;10.70;;
11531;SDS011;5822;51.000;5.874;2022-10-16T07:51:10;10.48;;;10.00;;
11531;SDS011;5822;51.000;5.874;2022-10-16T07:53:37;10.90;;;10.40;;
11531;SDS011;5822;51.000;5.874;2022-10-16T07:56:03;10.30;;;9.80;;
11531;SDS011;5822;51.000;5.874;2022-10-16T07:58:31;11.80;;;11.30;;
11531;SDS011;5822;51.000;5.874;2022-10-16T08:00:57;10.55;;;10.02;;
11531;SDS011;5822;51.000;5.874;2022-10-16T08:03:23;10.35;;;9.85;;
11531;SDS011;5822;51.000;5.874;2022-10-16T08:05:50;10.60;;;10.18;;
11531;SDS011;5822;51.000;5.874;2022-10-16T08:08:16;10.90;;;10.40;;
11531;SDS011;5822;51.000;5.874;2022-10-16T08:10:43;10.40;;;10.00;;
11531;SDS011;5822;51.000;5.874;2022-10-16T08:13:09;10.48;;;10.00;;
11531;SDS011;5822;51.000;5.874;2022-10-16T08:15:35;10.20;;;9.70;;
11531;SDS011;5822;51.000;5.874;2022-10-16T08:18:02;10.00;;;9.60;;
11531;SDS011;5822;51.000;5.874;2022-10-16T08:20:29;10.60;;;10.10;;
11531;SDS011;5822;51.000;5.874;2022-10-16T08:22:55;10.40;;;9.90;;
11531;SDS011;5822;51.000;5.874;2022-10-16T08:25:22;10.20;;;9.80;;
11531;SDS011;5822;51.000;5.874;2022-10-16T08:27:48;10.30;;;9.90;;
11531;SDS011;5822;51.000;5.874;2022-10-16T08:30:14;10.50;;;10.10;;
11531;SDS011;5822;51.000;5.874;2022-10-16T08:32:40;10.25;;;9.80;;
11531;SDS011;5822;51.000;5.874;2022-10-16T08:35:07;10.73;;;10.23;;
11531;SDS011;5822;51.000;5.874;2022-10-16T08:37:34;10.77;;;10.30;;
11531;SDS011;5822;51.000;5.874;2022-10-16T08:40:00;10.48;;;9.98;;
11531;SDS011;5822;51.000;5.874;2022-10-16T08:42:36;10.00;;;9.60;;
11531;SDS011;5822;51.000;5.874;2022-10-16T08:45:27;10.10;;;9.70;;
11531;SDS011;5822;51.000;5.874;2022-10-16T08:50:52;10.18;;;9.77;;
11531;SDS011;5822;51.000;5.874;2022-10-16T08:53:23;10.10;;;9.70;;
11531;SDS011;5822;51.000;5.874;2022-10-16T08:56:19;10.40;;;10.00;;
11531;SDS011;5822;51.000;5.874;2022-10-16T08:58:45;9.90;;;9.50;;
11531;SDS011;5822;51.000;5.874;2022-10-16T09:01:13;9.70;;;9.30;;
11531;SDS011;5822;51.000;5.874;2022-10-16T09:14:48;10.70;;;10.30;;
11531;SDS011;5822;51.000;5.874;2022-10-16T09:17:20;11.18;;;10.68;;
11531;SDS011;5822;51.000;5.874;2022-10-16T09:20:10;10.70;;;10.20;;
11531;SDS011;5822;51.000;5.874;2022-10-16T09:22:43;9.95;;;9.55;;
11531;SDS011;5822;51.000;5.874;2022-10-16T09:25:10;10.80;;;10.30;;
11531;SDS011;5822;51.000;5.874;2022-10-16T09:27:38;10.93;;;10.43;;
11531;SDS011;5822;51.000;5.874;2022-10-16T09:30:14;11.10;;;10.60;;
11531;SDS011;5822;51.000;5.874;2022-10-16T09:32:44;11.52;;;10.93;;
11531;SDS011;5822;51.000;5.874;2022-10-16T09:35:16;11.40;;;10.90;;
11531;SDS011;5822;51.000;5.874;2022-10-16T09:37:48;12.23;;;11.73;;
11531;SDS011;5822;51.000;5.874;2022-10-16T09:40:26;12.27;;;11.77;;
11531;SDS011;5822;51.000;5.874;2022-10-16T09:42:57;10.43;;;9.93;;
11531;SDS011;5822;51.000;5.874;2022-10-16T09:45:55;11.27;;;10.77;;
11531;SDS011;5822;51.000;5.874;2022-10-16T09:48:43;9.38;;;8.98;;
11531;SDS011;5822;51.000;5.874;2022-10-16T09:51:31;9.00;;;8.60;;
11531;SDS011;5822;51.000;5.874;2022-10-16T09:54:10;10.20;;;9.70;;
11531;SDS011;5822;51.000;5.874;2022-10-16T09:56:44;9.10;;;8.70;;
11531;SDS011;5822;51.000;5.874;2022-10-16T09:59:15;9.90;;;9.40;;
11531;SDS011;5822;51.000;5.874;2022-10-16T10:01:43;9.90;;;9.50;;
11531;SDS011;5822;51.000;5.874;2022-10-16T10:04:10;10.70;;;10.20;;
11531;SDS011;5822;51.000;5.874;2022-10-16T10:06:36;10.50;;;10.00;;
11531;SDS011;5822;51.000;5.874;2022-10-16T10:09:17;10.18;;;9.77;;
11531;SDS011;5822;51.000;5.874;2022-10-16T10:14:42;10.80;;;10.40;;
11531;SDS011;5822;51.000;5.874;2022-10-16T10:17:16;10.30;;;9.90;;
11531;SDS011;5822;51.000;5.874;2022-10-16T10:19:58;9.75;;;9.35;;
11531;SDS011;5822;51.000;5.874;2022-10-16T10:22:44;9.60;;;9.10;;
11531;SDS011;5822;51.000;5.874;2022-10-16T10:30:25;9.60;;;9.20;;
11531;SDS011;5822;51.000;5.874;2022-10-16T10:33:24;9.60;;;9.20;;
11531;SDS011;5822;51.000;5.874;2022-10-16T10:36:34;9.10;;;8.70;;
11531;SDS011;5822;51.000;5.874;2022-10-16T10:49:41;9.60;;;9.20;;
11531;SDS011;5822;51.000;5.874;2022-10-16T10:55:10;9.73;;;9.30;;
11531;SDS011;5822;51.000;5.874;2022-10-16T11:01:08;9.98;;;9.57;;
11531;SDS011;5822;51.000;5.874;2022-10-16T11:09:24;10.40;;;9.90;;
11531;SDS011;5822;51.000;5.874;2022-10-16T11:11:58;10.60;;;10.10;;
11531;SDS011;5822;51.000;5.874;2022-10-16T11:17:53;10.40;;;9.90;;
11531;SDS011;5822;51.000;5.874;2022-10-16T11:20:22;9.88;;;9.48;;
11531;SDS011;5822;51.000;5.874;2022-10-16T11:22:53;10.70;;;10.20;;
11531;SDS011;5822;51.000;5.874;2022-10-16T11:25:26;10.70;;;10.20;;
11531;SDS011;5822;51.000;5.874;2022-10-16T11:30:27;10.60;;;10.20;;
11531;SDS011;5822;51.000;5.874;2022-10-16T11:35:25;10.95;;;10.45;;
11531;SDS011;5822;51.000;5.874;2022-10-16T11:38:03;9.70;;;9.30;;
11531;SDS011;5822;51.000;5.874;2022-10-16T11:40:37;9.90;;;9.50;;
11531;SDS011;5822;51.000;5.874;2022-10-16T11:45:42;9.90;;;9.50;;
11531;SDS011;5822;51.000;5.874;2022-10-16T11:56:08;10.47;;;9.97;;
11531;SDS011;5822;51.000;5.874;2022-10-16T11:58:49;10.73;;;10.23;;
11531;SDS011;5822;51.000;5.874;2022-10-16T12:01:30;10.60;;;10.10;;
11531;SDS011;5822;51.000;5.874;2022-10-16T12:09:15;9.90;;;9.50;;
11531;SDS011;5822;51.000;5.874;2022-10-16T12:11:51;9.50;;;9.10;;
11531;SDS011;5822;51.000;5.874;2022-10-16T12:17:04;10.20;;;9.80;;
11531;SDS011;5822;51.000;5.874;2022-10-16T12:19:58;10.00;;;9.60;;
11531;SDS011;5822;51.000;5.874;2022-10-16T12:22:36;10.00;;;9.60;;
11531;SDS011;5822;51.000;5.874;2022-10-16T12:25:05;9.50;;;9.10;;
11531;SDS011;5822;51.000;5.874;2022-10-16T12:27:44;9.57;;;9.18;;
11531;SDS011;5822;51.000;5.874;2022-10-16T12:30:14;9.68;;;9.27;;
11531;SDS011;5822;51.000;5.874;2022-10-16T12:32:59;9.70;;;9.30;;
11531;SDS011;5822;51.000;5.874;2022-10-16T12:35:44;9.80;;;9.40;;
11531;SDS011;5822;51.000;5.874;2022-10-16T12:38:18;9.70;;;9.30;;
11531;SDS011;5822;51.000;5.874;2022-10-16T12:41:03;9.40;;;9.00;;
11531;SDS011;5822;51.000;5.874;2022-10-16T12:46:19;9.30;;;8.90;;
11531;SDS011;5822;51.000;5.874;2022-10-16T12:48:48;9.35;;;8.95;;
11531;SDS011;5822;51.000;5.874;2022-10-16T12:56:28;9.40;;;9.00;;
11531;SDS011;5822;51.000;5.874;2022-10-16T13:10:39;9.82;;;9.38;;
11531;SDS011;5822;51.000;5.874;2022-10-16T13:18:45;9.80;;;9.40;;
11531;SDS011;5822;51.000;5.874;2022-10-16T13:21:33;9.75;;;9.35;;
11531;SDS011;5822;51.000;5.874;2022-10-16T13:29:37;12.05;;;11.55;;
11531;SDS011;5822;51.000;5.874;2022-10-16T13:32:09;11.70;;;11.25;;
11531;SDS011;5822;51.000;5.874;2022-10-16T13:34:43;11.90;;;11.40;;
11531;SDS011;5822;51.000;5.874;2022-10-16T13:37:18;11.60;;;11.20;;
11531;SDS011;5822;51.000;5.874;2022-10-16T13:39:45;11.60;;;11.20;;
11531;SDS011;5822;51.000;5.874;2022-10-16T13:42:18;11.60;;;11.20;;
11531;SDS011;5822;51.000;5.874;2022-10-16T13:44:51;11.10;;;10.70;;
11531;SDS011;5822;51.000;5.874;2022-10-16T13:47:19;11.18;;;10.77;;
11531;SDS011;5822;51.000;5.874;2022-10-16T13:50:03;11.00;;;10.60;;
11531;SDS011;5822;51.000;5.874;2022-10-16T13:52:29;11.20;;;10.80;;
11531;SDS011;5822;51.000;5.874;2022-10-16T13:54:55;10.63;;;10.23;;
11531;SDS011;5822;51.000;5.874;2022-10-16T13:57:22;10.33;;;9.93;;
11531;SDS011;5822;51.000;5.874;2022-10-16T13:59:49;10.23;;;9.82;;
11531;SDS011;5822;51.000;5.874;2022-10-16T14:02:18;10.27;;;9.88;;
11531;SDS011;5822;51.000;5.874;2022-10-16T14:04:50;10.60;;;10.20;;
11531;SDS011;5822;51.000;5.874;2022-10-16T14:07:25;10.75;;;10.35;;
11531;SDS011;5822;51.000;5.874;2022-10-16T14:09:53;10.15;;;9.75;;
11531;SDS011;5822;51.000;5.874;2022-10-16T14:12:20;9.90;;;9.50;;
11531;SDS011;5822;51.000;5.874;2022-10-16T14:14:49;10.35;;;9.95;;
11531;SDS011;5822;51.000;5.874;2022-10-16T14:17:27;10.10;;;9.70;;
11531;SDS011;5822;51.000;5.874;2022-10-16T14:19:59;10.07;;;9.68;;
11531;SDS011;5822;51.000;5.874;2022-10-16T14:24:55;8.25;;;7.95;;
11531;SDS011;5822;51.000;5.874;2022-10-16T14:27:26;8.30;;;8.00;;
11531;SDS011;5822;51.000;5.874;2022-10-16T14:30:14;8.48;;;8.18;;
11531;SDS011;5822;51.000;5.874;2022-10-16T14:32:52;8.30;;;8.00;;
11531;SDS011;5822;51.000;5.874;2022-10-16T14:35:23;8.20;;;7.90;;
11531;SDS011;5822;51.000;5.874;2022-10-16T14:37:51;8.10;;;7.80;;
11531;SDS011;5822;51.000;5.874;2022-10-16T14:40:18;8.20;;;7.90;;
11531;SDS011;5822;51.000;5.874;2022-10-16T14:42:45;8.10;;;7.80;;
11531;SDS011;5822;51.000;5.874;2022-10-16T14:45:12;8.30;;;8.00;;
11531;SDS011;5822;51.000;5.874;2022-10-16T14:47:46;8.48;;;8.18;;
11531;SDS011;5822;51.000;5.874;2022-10-16T14:50:18;8.30;;;8.00;;
11531;SDS011;5822;51.000;5.874;2022-10-16T14:52:44;8.20;;;7.90;;
11531;SDS011;5822;51.000;5.874;2022-10-16T14:55:09;9.10;;;8.70;;
11531;SDS011;5822;51.000;5.874;2022-10-16T14:57:36;9.30;;;9.00;;
11531;SDS011;5822;51.000;5.874;2022-10-16T15:00:06;9.50;;;9.10;;
11531;SDS011;5822;51.000;5.874;2022-10-16T15:02:41;9.70;;;9.30;;
11531;SDS011;5822;51.000;5.874;2022-10-16T15:05:16;9.15;;;8.80;;
11531;SDS011;5822;51.000;5.874;2022-10-16T15:07:43;10.00;;;9.60;;
11531;SDS011;5822;51.000;5.874;2022-10-16T15:10:10;10.52;;;10.13;;
11531;SDS011;5822;51.000;5.874;2022-10-16T15:12:36;10.02;;;9.63;;
11531;SDS011;5822;51.000;5.874;2022-10-16T15:15:09;9.97;;;9.57;;
11531;SDS011;5822;51.000;5.874;2022-10-16T15:18:00;7.90;;;7.60;;
11531;SDS011;5822;51.000;5.874;2022-10-16T15:20:28;8.20;;;7.90;;
11531;SDS011;5822;51.000;5.874;2022-10-16T15:22:58;8.53;;;8.17;;
11531;SDS011;5822;51.000;5.874;2022-10-16T15:25:27;8.52;;;8.23;;
11531;SDS011;5822;51.000;5.874;2022-10-16T15:27:57;8.00;;;7.70;;
11531;SDS011;5822;51.000;5.874;2022-10-16T15:30:23;8.05;;;7.75;;
11531;SDS011;5822;51.000;5.874;2022-10-16T15:32:49;8.00;;;7.70;;
11531;SDS011;5822;51.000;5.874;2022-10-16T15:35:15;8.05;;;7.75;;
11531;SDS011;5822;51.000;5.874;2022-10-16T15:37:41;8.00;;;7.70;;
11531;SDS011;5822;51.000;5.874;2022-10-16T15:40:07;8.00;;;7.70;;
11531;SDS011;5822;51.000;5.874;2022-10-16T15:42:34;7.80;;;7.50;;
11531;SDS011;5822;51.000;5.874;2022-10-16T15:45:00;7.75;;;7.45;;
11531;SDS011;5822;51.000;5.874;2022-10-16T15:47:25;8.00;;;7.70;;
11531;SDS011;5822;51.000;5.874;2022-10-16T15:49:51;7.50;;;7.20;;
11531;SDS011;5822;51.000;5.874;2022-10-16T15:52:16;7.80;;;7.50;;
11531;SDS011;5822;51.000;5.874;2022-10-16T15:54:42;7.80;;;7.50;;
11531;SDS011;5822;51.000;5.874;2022-10-16T15:57:08;7.53;;;7.22;;
11531;SDS011;5822;51.000;5.874;2022-10-16T15:59:34;7.70;;;7.40;;
11531;SDS011;5822;51.000;5.874;2022-10-16T16:02:00;8.00;;;7.70;;
11531;SDS011;5822;51.000;5.874;2022-10-16T16:04:25;8.10;;;7.80;;
11531;SDS011;5822;51.000;5.874;2022-10-16T16:06:51;7.83;;;7.53;;
11531;SDS011;5822;51.000;5.874;2022-10-16T16:09:16;7.60;;;7.30;;
11531;SDS011;5822;51.000;5.874;2022-10-16T16:11:42;7.40;;;7.10;;
11531;SDS011;5822;51.000;5.874;2022-10-16T16:14:10;7.90;;;7.60;;
11531;SDS011;5822;51.000;5.874;2022-10-16T16:16:38;7.90;;;7.60;;
11531;SDS011;5822;51.000;5.874;2022-10-16T16:19:04;7.88;;;7.57;;
11531;SDS011;5822;51.000;5.874;2022-10-16T16:21:31;7.90;;;7.60;;
11531;SDS011;5822;51.000;5.874;2022-10-16T16:23:57;7.70;;;7.40;;
11531;SDS011;5822;51.000;5.874;2022-10-16T16:26:31;7.60;;;7.30;;
11531;SDS011;5822;51.000;5.874;2022-10-16T16:29:00;7.30;;;7.00;;
11531;SDS011;5822;51.000;5.874;2022-10-16T16:31:27;7.30;;;7.00;;
11531;SDS011;5822;51.000;5.874;2022-10-16T16:33:54;7.13;;;6.82;;
11531;SDS011;5822;51.000;5.874;2022-10-16T16:36:22;6.90;;;6.60;;
11531;SDS011;5822;51.000;5.874;2022-10-16T16:38:47;7.00;;;6.70;;
11531;SDS011;5822;51.000;5.874;2022-10-16T16:41:14;7.00;;;6.70;;
11531;SDS011;5822;51.000;5.874;2022-10-16T16:43:41;7.35;;;7.05;;
11531;SDS011;5822;51.000;5.874;2022-10-16T16:46:07;7.60;;;7.30;;
11531;SDS011;5822;51.000;5.874;2022-10-16T16:48:33;7.97;;;7.67;;
11531;SDS011;5822;51.000;5.874;2022-10-16T16:51:06;7.80;;;7.50;;
11531;SDS011;5822;51.000;5.874;2022-10-16T16:53:33;7.35;;;7.05;;
11531;SDS011;5822;51.000;5.874;2022-10-16T16:56:03;7.10;;;6.80;;
11531;SDS011;5822;51.000;5.874;2022-10-16T16:58:30;7.20;;;6.90;;
11531;SDS011;5822;51.000;5.874;2022-10-16T17:00:56;7.47;;;7.18;;
11531;SDS011;5822;51.000;5.874;2022-10-16T17:03:26;7.50;;;7.20;;
11531;SDS011;5822;51.000;5.874;2022-10-16T17:05:59;7.40;;;7.00;;